createdAt,value
2018-12-02T00:00:20.669Z,8.78
2018-12-02T00:01:20.712Z,8.76
2018-12-02T00:02:20.663Z,8.75
2018-12-02T00:03:20.559Z,8.77
2018-12-02T00:04:20.539Z,8.75
2018-12-02T00:05:20.688Z,8.77
2018-12-02T00:06:20.724Z,8.76
2018-12-02T00:07:20.522Z,8.77
2018-12-02T00:08:20.576Z,8.78
2018-12-02T00:09:21.025Z,8.78
2018-12-02T00:10:20.543Z,8.78
2018-12-02T00:11:20.814Z,8.78
2018-12-02T00:12:20.705Z,8.78
2018-12-02T00:13:20.540Z,8.75
2018-12-02T00:14:20.677Z,8.78
2018-12-02T00:15:20.561Z,8.76
2018-12-02T00:16:20.576Z,8.77
2018-12-02T00:17:20.560Z,8.77
2018-12-02T00:18:20.519Z,8.75
2018-12-02T00:19:20.775Z,8.74
2018-12-02T00:20:20.755Z,8.74
2018-12-02T00:21:20.686Z,8.74
2018-12-02T00:22:20.674Z,8.74
2018-12-02T00:23:20.666Z,8.76
2018-12-02T00:24:20.679Z,8.75
2018-12-02T00:25:20.545Z,8.79
2018-12-02T00:26:20.592Z,8.76
2018-12-02T00:27:20.600Z,8.77
2018-12-02T00:28:20.773Z,8.77
2018-12-02T00:29:20.743Z,8.75
2018-12-02T00:30:20.685Z,8.75
2018-12-02T00:31:20.459Z,8.74
2018-12-02T00:32:20.633Z,8.74
2018-12-02T00:33:20.487Z,8.74
2018-12-02T00:34:20.528Z,8.74
2018-12-02T00:35:20.469Z,8.73
2018-12-02T00:36:21.306Z,8.76
2018-12-02T00:37:20.463Z,8.74
2018-12-02T00:38:20.529Z,8.73
2018-12-02T00:39:20.683Z,8.73
2018-12-02T00:40:20.739Z,8.74
2018-12-02T00:41:20.698Z,8.74
2018-12-02T00:42:20.698Z,8.74
2018-12-02T00:43:20.558Z,8.73
2018-12-02T00:44:20.481Z,8.74
2018-12-02T00:45:20.739Z,8.74
2018-12-02T00:46:20.592Z,8.75
2018-12-02T00:47:20.466Z,8.74
2018-12-02T00:48:20.707Z,8.74
2018-12-02T00:49:20.681Z,8.74
2018-12-02T00:50:20.419Z,8.75
2018-12-02T00:51:20.659Z,8.75
2018-12-02T00:52:20.760Z,8.75
2018-12-02T00:53:20.846Z,8.75
2018-12-02T00:54:20.687Z,8.77
2018-12-02T00:55:20.587Z,8.75
2018-12-02T00:56:20.508Z,8.78
2018-12-02T00:57:20.418Z,8.74
2018-12-02T00:58:20.468Z,8.74
2018-12-02T00:59:20.754Z,8.74
2018-12-02T01:00:20.669Z,8.75
2018-12-02T01:01:20.413Z,8.76
2018-12-02T01:02:20.566Z,8.74
2018-12-02T01:03:20.705Z,8.74
2018-12-02T01:04:20.445Z,8.74
2018-12-02T01:05:20.450Z,8.73
2018-12-02T01:06:20.505Z,8.73
2018-12-02T01:07:20.435Z,8.73
2018-12-02T01:08:20.463Z,8.73
2018-12-02T01:09:20.492Z,8.73
2018-12-02T01:10:20.484Z,8.72
2018-12-02T01:11:20.818Z,8.72
2018-12-02T01:12:20.463Z,8.73
2018-12-02T01:13:20.425Z,8.74
2018-12-02T01:14:20.530Z,8.75
2018-12-02T01:15:20.517Z,8.74
2018-12-02T01:16:20.477Z,8.75
2018-12-02T01:17:20.682Z,8.75
2018-12-02T01:18:20.399Z,8.74
2018-12-02T01:19:20.418Z,8.73
2018-12-02T01:20:20.438Z,8.74
2018-12-02T01:21:20.425Z,8.76
2018-12-02T01:22:20.462Z,8.76
2018-12-02T01:23:20.458Z,8.73
2018-12-02T01:24:20.465Z,8.74
2018-12-02T01:25:20.726Z,8.73
2018-12-02T01:26:20.392Z,8.73
2018-12-02T01:27:20.429Z,8.74
2018-12-02T01:28:20.637Z,8.73
2018-12-02T01:29:20.464Z,8.74
2018-12-02T01:30:20.416Z,8.74
2018-12-02T01:31:20.703Z,8.74
2018-12-02T01:32:20.740Z,8.73
2018-12-02T01:33:20.425Z,8.76
2018-12-02T01:34:20.720Z,8.76
2018-12-02T01:35:20.492Z,8.75
2018-12-02T01:36:20.698Z,8.75
2018-12-02T01:37:20.500Z,8.75
2018-12-02T01:38:20.576Z,8.77
2018-12-02T01:39:20.609Z,8.75
2018-12-02T01:40:20.388Z,8.75
2018-12-02T01:41:20.534Z,8.76
2018-12-02T01:42:20.458Z,8.76
2018-12-02T01:43:20.614Z,8.76
2018-12-02T01:44:20.671Z,8.76
2018-12-02T01:45:20.459Z,8.78
2018-12-02T01:46:20.535Z,8.76
2018-12-02T01:47:20.559Z,8.78
2018-12-02T01:48:20.803Z,8.77
2018-12-02T01:49:20.452Z,8.76
2018-12-02T01:50:20.581Z,8.78
2018-12-02T01:51:20.434Z,8.81
2018-12-02T01:52:20.408Z,8.81
2018-12-02T01:53:20.806Z,8.8
2018-12-02T01:54:20.449Z,8.8
2018-12-02T01:55:20.390Z,8.8
2018-12-02T01:56:20.555Z,8.8
2018-12-02T01:57:20.525Z,8.81
2018-12-02T01:58:20.429Z,8.83
2018-12-02T01:59:20.360Z,8.8
2018-12-02T02:00:20.624Z,8.81
2018-12-02T02:01:20.739Z,8.81
2018-12-02T02:02:20.633Z,8.81
2018-12-02T02:03:20.609Z,8.85
2018-12-02T02:04:20.616Z,8.82
2018-12-02T02:05:20.465Z,8.83
2018-12-02T02:06:20.409Z,8.82
2018-12-02T02:07:20.397Z,8.85
2018-12-02T02:08:20.566Z,8.83
2018-12-02T02:09:20.374Z,8.85
2018-12-02T02:10:20.368Z,8.85
2018-12-02T02:11:20.422Z,8.85
2018-12-02T02:12:20.728Z,8.85
2018-12-02T02:13:20.405Z,8.84
2018-12-02T02:14:20.345Z,8.85
2018-12-02T02:15:20.457Z,8.83
2018-12-02T02:16:20.453Z,8.84
2018-12-02T02:17:20.523Z,8.82
2018-12-02T02:18:20.657Z,8.85
2018-12-02T02:19:20.451Z,8.85
2018-12-02T02:20:20.375Z,8.86
2018-12-02T02:21:20.360Z,8.86
2018-12-02T02:22:20.540Z,8.84
2018-12-02T02:23:20.514Z,8.84
2018-12-02T02:24:20.338Z,8.86
2018-12-02T02:25:20.364Z,8.87
2018-12-02T02:26:20.343Z,8.86
2018-12-02T02:27:20.380Z,8.86
2018-12-02T02:28:20.388Z,8.84
2018-12-02T02:29:20.291Z,8.87
2018-12-02T02:30:20.363Z,8.86
2018-12-02T02:31:20.516Z,8.87
2018-12-02T02:32:20.509Z,8.87
2018-12-02T02:33:20.363Z,8.87
2018-12-02T02:34:20.362Z,8.89
2018-12-02T02:35:20.335Z,8.88
2018-12-02T02:36:20.556Z,8.87
2018-12-02T02:37:20.361Z,8.87
2018-12-02T02:38:20.484Z,8.87
2018-12-02T02:39:20.520Z,8.88
2018-12-02T02:40:20.398Z,8.88
2018-12-02T02:41:20.450Z,8.88
2018-12-02T02:42:20.566Z,8.88
2018-12-02T02:43:20.313Z,8.88
2018-12-02T02:44:20.295Z,8.9
2018-12-02T02:45:20.502Z,8.92
2018-12-02T02:46:20.328Z,8.89
2018-12-02T02:47:20.302Z,8.92
2018-12-02T02:48:20.332Z,8.92
2018-12-02T02:49:20.341Z,8.93
2018-12-02T02:50:20.329Z,8.92
2018-12-02T02:51:20.318Z,8.91
2018-12-02T02:52:20.324Z,8.93
2018-12-02T02:53:20.293Z,8.92
2018-12-02T02:54:20.410Z,8.93
2018-12-02T02:55:20.308Z,8.93
2018-12-02T02:56:20.344Z,8.93
2018-12-02T02:57:20.264Z,8.95
2018-12-02T02:58:20.296Z,8.93
2018-12-02T02:59:20.306Z,8.93
2018-12-02T03:00:20.345Z,8.93
2018-12-02T03:01:20.300Z,8.94
2018-12-02T03:02:20.362Z,8.93
2018-12-02T03:03:20.307Z,8.94
2018-12-02T03:04:21.108Z,8.93
2018-12-02T03:05:20.590Z,8.93
2018-12-02T03:06:20.402Z,8.93
2018-12-02T03:07:20.411Z,8.93
2018-12-02T03:08:20.235Z,8.93
2018-12-02T03:09:20.293Z,8.93
2018-12-02T03:10:20.290Z,8.93
2018-12-02T03:11:20.266Z,8.92
2018-12-02T03:12:20.863Z,8.92
2018-12-02T03:13:20.319Z,8.93
2018-12-02T03:14:20.548Z,8.92
2018-12-02T03:15:20.914Z,8.93
2018-12-02T03:16:20.781Z,8.92
2018-12-02T03:17:20.386Z,8.93
2018-12-02T03:18:20.423Z,8.93
2018-12-02T03:19:20.338Z,8.92
2018-12-02T03:20:20.344Z,8.92
2018-12-02T03:21:20.328Z,8.92
2018-12-02T03:22:20.413Z,8.92
2018-12-02T03:23:20.524Z,8.94
2018-12-02T03:24:20.604Z,8.93
2018-12-02T03:25:20.390Z,8.93
2018-12-02T03:26:20.384Z,8.92
2018-12-02T03:27:20.455Z,8.92
2018-12-02T03:28:20.381Z,8.93
2018-12-02T03:29:20.338Z,8.91
2018-12-02T03:30:20.670Z,8.92
2018-12-02T03:31:20.561Z,8.93
2018-12-02T03:32:20.386Z,8.93
2018-12-02T03:33:20.549Z,8.91
2018-12-02T03:34:20.729Z,8.93
2018-12-02T03:35:20.324Z,8.93
2018-12-02T03:36:20.669Z,8.93
2018-12-02T03:37:20.244Z,8.93
2018-12-02T03:38:20.239Z,8.92
2018-12-02T03:39:20.689Z,8.93
2018-12-02T03:40:20.293Z,8.89
2018-12-02T03:41:20.593Z,8.92
2018-12-02T03:42:20.313Z,8.93
2018-12-02T03:43:20.260Z,8.93
2018-12-02T03:44:20.514Z,8.9
2018-12-02T03:45:20.482Z,8.93
2018-12-02T03:46:20.322Z,8.92
2018-12-02T03:47:20.401Z,8.94
2018-12-02T03:48:20.346Z,8.93
2018-12-02T03:49:21.057Z,8.93
2018-12-02T03:50:20.316Z,8.93
2018-12-02T03:51:20.536Z,8.93
2018-12-02T03:52:20.652Z,8.93
2018-12-02T03:53:20.391Z,8.94
2018-12-02T03:54:20.513Z,8.94
2018-12-02T03:55:20.690Z,8.93
2018-12-02T03:56:20.230Z,8.93
2018-12-02T03:57:20.383Z,8.94
2018-12-02T03:58:20.439Z,8.93
2018-12-02T03:59:20.290Z,8.95
2018-12-02T04:00:20.314Z,8.95
2018-12-02T04:01:20.476Z,8.92
2018-12-02T04:02:20.291Z,8.94
2018-12-02T04:03:20.336Z,8.93
2018-12-02T04:04:20.372Z,8.94
2018-12-02T04:05:20.274Z,8.93
2018-12-02T04:06:20.257Z,8.92
2018-12-02T04:07:21.030Z,8.94
2018-12-02T04:08:20.239Z,8.93
2018-12-02T04:09:20.283Z,8.94
2018-12-02T04:10:20.264Z,8.94
2018-12-02T04:11:20.369Z,8.91
2018-12-02T04:12:20.641Z,8.92
2018-12-02T04:13:20.264Z,8.9
2018-12-02T04:14:20.261Z,8.9
2018-12-02T04:15:21.123Z,8.87
2018-12-02T04:16:20.511Z,8.86
2018-12-02T04:17:20.963Z,8.86
2018-12-02T04:18:20.357Z,8.84
2018-12-02T04:19:20.256Z,8.83
2018-12-02T04:20:20.270Z,8.81
2018-12-02T04:21:20.644Z,8.8
2018-12-02T04:22:20.311Z,8.77
2018-12-02T04:23:20.182Z,8.77
2018-12-02T04:24:20.400Z,8.74
2018-12-02T04:25:20.266Z,8.74
2018-12-02T04:26:20.172Z,8.72
2018-12-02T04:27:20.177Z,8.71
2018-12-02T04:28:20.177Z,8.69
2018-12-02T04:29:20.226Z,8.69
2018-12-02T04:30:20.306Z,8.7
2018-12-02T04:31:20.192Z,8.69
2018-12-02T04:32:20.220Z,8.68
2018-12-02T04:33:20.328Z,8.68
2018-12-02T04:34:20.423Z,8.65
2018-12-02T04:35:20.235Z,8.66
2018-12-02T04:36:20.448Z,8.66
2018-12-02T04:37:20.418Z,8.65
2018-12-02T04:38:20.354Z,8.63
2018-12-02T04:39:20.165Z,8.63
2018-12-02T04:40:20.193Z,8.61
2018-12-02T04:41:20.203Z,8.62
2018-12-02T04:42:20.506Z,8.63
2018-12-02T04:43:20.244Z,8.62
2018-12-02T04:44:20.256Z,8.62
2018-12-02T04:45:20.401Z,8.62
2018-12-02T04:46:20.439Z,8.6
2018-12-02T04:47:20.211Z,8.6
2018-12-02T04:48:20.175Z,8.62
2018-12-02T04:49:20.214Z,8.6
2018-12-02T04:50:20.443Z,8.61
2018-12-02T04:51:20.392Z,8.59
2018-12-02T04:52:20.468Z,8.62
2018-12-02T04:53:20.295Z,8.59
2018-12-02T04:54:20.277Z,8.58
2018-12-02T04:55:20.516Z,8.57
2018-12-02T04:56:20.366Z,8.57
2018-12-02T04:57:20.144Z,8.54
2018-12-02T04:58:20.184Z,8.56
2018-12-02T04:59:20.319Z,8.55
2018-12-02T05:00:20.363Z,8.53
2018-12-02T05:01:20.121Z,8.52
2018-12-02T05:02:20.257Z,8.54
2018-12-02T05:03:20.250Z,8.52
2018-12-02T05:04:20.308Z,8.52
2018-12-02T05:05:20.190Z,8.52
2018-12-02T05:06:20.191Z,8.52
2018-12-02T05:07:20.175Z,8.51
2018-12-02T05:08:20.253Z,8.5
2018-12-02T05:09:20.585Z,8.5
2018-12-02T05:10:20.296Z,8.5
2018-12-02T05:11:20.313Z,8.48
2018-12-02T05:12:20.314Z,8.47
2018-12-02T05:13:20.137Z,8.48
2018-12-02T05:14:20.144Z,8.48
2018-12-02T05:15:20.184Z,8.51
2018-12-02T05:16:20.291Z,8.5
2018-12-02T05:17:20.281Z,8.51
2018-12-02T05:18:20.304Z,8.51
2018-12-02T05:19:20.214Z,8.49
2018-12-02T05:20:20.325Z,8.51
2018-12-02T05:21:20.325Z,8.51
2018-12-02T05:22:20.162Z,8.51
2018-12-02T05:23:20.167Z,8.51
2018-12-02T05:24:20.228Z,8.5
2018-12-02T05:25:20.616Z,8.51
2018-12-02T05:26:20.190Z,8.51
2018-12-02T05:27:20.313Z,8.51
2018-12-02T05:28:20.472Z,8.48
2018-12-02T05:29:20.192Z,8.5
2018-12-02T05:30:20.246Z,8.5
2018-12-02T05:31:20.207Z,8.46
2018-12-02T05:32:20.317Z,8.49
2018-12-02T05:33:20.971Z,8.49
2018-12-02T05:34:20.197Z,8.49
2018-12-02T05:35:20.178Z,8.46
2018-12-02T05:36:20.294Z,8.47
2018-12-02T05:37:20.265Z,8.47
2018-12-02T05:38:20.399Z,8.48
2018-12-02T05:39:20.499Z,8.45
2018-12-02T05:40:20.205Z,8.45
2018-12-02T05:41:20.155Z,8.46
2018-12-02T05:42:20.040Z,8.45
2018-12-02T05:43:20.255Z,8.45
2018-12-02T05:44:20.174Z,8.45
2018-12-02T05:45:20.338Z,8.44
2018-12-02T05:46:20.172Z,8.44
2018-12-02T05:47:20.297Z,8.45
2018-12-02T05:48:22.682Z,8.42
2018-12-02T05:49:21.200Z,8.44
2018-12-02T05:50:20.101Z,8.42
2018-12-02T05:51:20.090Z,8.43
2018-12-02T05:52:20.290Z,8.4
2018-12-02T05:53:20.237Z,8.4
2018-12-02T05:54:20.058Z,8.4
2018-12-02T05:55:20.220Z,8.4
2018-12-02T05:56:20.037Z,8.41
2018-12-02T05:57:20.063Z,8.4
2018-12-02T05:58:20.139Z,8.4
2018-12-02T05:59:20.073Z,8.4
2018-12-02T06:00:20.155Z,8.4
2018-12-02T06:01:20.056Z,8.4
2018-12-02T06:02:20.064Z,8.39
2018-12-02T06:03:20.059Z,8.41
2018-12-02T06:04:20.045Z,8.39
2018-12-02T06:05:20.106Z,8.4
2018-12-02T06:06:20.200Z,8.39
2018-12-02T06:07:20.065Z,8.4
2018-12-02T06:08:20.058Z,8.39
2018-12-02T06:09:20.056Z,8.39
2018-12-02T06:10:20.156Z,8.39
2018-12-02T06:11:20.128Z,8.39
2018-12-02T06:12:20.317Z,8.38
2018-12-02T06:13:20.177Z,8.39
2018-12-02T06:14:20.217Z,8.39
2018-12-02T06:15:20.187Z,8.39
2018-12-02T06:16:20.195Z,8.39
2018-12-02T06:17:20.084Z,8.37
2018-12-02T06:18:20.106Z,8.39
2018-12-02T06:19:20.047Z,8.39
2018-12-02T06:20:20.268Z,8.38
2018-12-02T06:21:20.069Z,8.37
2018-12-02T06:22:20.045Z,8.38
2018-12-02T06:23:20.240Z,8.38
2018-12-02T06:24:20.212Z,8.39
2018-12-02T06:25:20.262Z,8.39
2018-12-02T06:26:20.027Z,8.36
2018-12-02T06:27:20.050Z,8.39
2018-12-02T06:28:20.666Z,8.37
2018-12-02T06:29:20.280Z,8.38
2018-12-02T06:30:20.136Z,8.36
2018-12-02T06:31:20.145Z,8.38
2018-12-02T06:32:20.202Z,8.38
2018-12-02T06:33:20.230Z,8.39
2018-12-02T06:34:20.220Z,8.39
2018-12-02T06:35:20.347Z,8.38
2018-12-02T06:36:20.282Z,8.39
2018-12-02T06:37:20.219Z,8.38
2018-12-02T06:38:20.036Z,8.39
2018-12-02T06:39:20.047Z,8.39
2018-12-02T06:40:20.074Z,8.39
2018-12-02T06:41:20.045Z,8.39
2018-12-02T06:42:20.033Z,8.39
2018-12-02T06:43:20.071Z,8.39
2018-12-02T06:44:20.036Z,8.39
2018-12-02T06:45:20.277Z,8.39
2018-12-02T06:46:20.181Z,8.39
2018-12-02T06:47:20.575Z,8.4
2018-12-02T06:48:20.063Z,8.39
2018-12-02T06:49:20.056Z,8.4
2018-12-02T06:50:20.319Z,8.39
2018-12-02T06:51:20.241Z,8.39
2018-12-02T06:52:20.274Z,8.39
2018-12-02T06:53:20.015Z,8.4
2018-12-02T06:54:20.006Z,8.39
2018-12-02T06:55:20.055Z,8.39
2018-12-02T06:56:20.162Z,8.4
2018-12-02T06:57:20.256Z,8.39
2018-12-02T06:58:20.521Z,8.39
2018-12-02T06:59:20.295Z,8.39
2018-12-02T07:00:20.211Z,8.39
2018-12-02T07:01:20.003Z,8.39
2018-12-02T07:02:19.970Z,8.42
2018-12-02T07:03:20.170Z,8.39
2018-12-02T07:04:20.203Z,8.38
2018-12-02T07:05:20.261Z,8.4
2018-12-02T07:06:20.037Z,8.39
2018-12-02T07:07:20.041Z,8.39
2018-12-02T07:08:20.042Z,8.39
2018-12-02T07:09:20.087Z,8.4
2018-12-02T07:10:19.981Z,8.4
2018-12-02T07:11:20.192Z,8.4
2018-12-02T07:12:19.961Z,8.38
2018-12-02T07:13:19.983Z,8.38
2018-12-02T07:14:20.160Z,8.38
2018-12-02T07:15:20.220Z,8.38
2018-12-02T07:16:19.960Z,8.38
2018-12-02T07:17:20.290Z,8.38
2018-12-02T07:18:20.209Z,8.38
2018-12-02T07:19:19.984Z,8.38
2018-12-02T07:20:19.949Z,8.39
2018-12-02T07:21:19.974Z,8.4
2018-12-02T07:22:19.979Z,8.4
2018-12-02T07:23:20.177Z,8.4
2018-12-02T07:24:20.249Z,8.4
2018-12-02T07:25:19.994Z,8.4
2018-12-02T07:26:20.148Z,8.41
2018-12-02T07:27:20.258Z,8.41
2018-12-02T07:28:20.037Z,8.42
2018-12-02T07:29:20.189Z,8.41
2018-12-02T07:30:25.362Z,8.41
2018-12-02T07:31:20.132Z,8.43
2018-12-02T07:32:20.259Z,8.43
2018-12-02T07:33:20.164Z,8.45
2018-12-02T07:34:20.002Z,8.45
2018-12-02T07:35:19.974Z,8.46
2018-12-02T07:36:19.939Z,8.46
2018-12-02T07:37:19.970Z,8.47
2018-12-02T07:38:19.959Z,8.47
2018-12-02T07:39:20.288Z,8.48
2018-12-02T07:40:19.963Z,8.5
2018-12-02T07:41:20.157Z,8.51
2018-12-02T07:42:19.980Z,8.52
2018-12-02T07:43:20.017Z,8.53
2018-12-02T07:44:19.961Z,8.53
2018-12-02T07:45:19.953Z,8.52
2018-12-02T07:46:19.910Z,8.52
2018-12-02T07:47:20.201Z,8.56
2018-12-02T07:48:19.902Z,8.55
2018-12-02T07:49:20.229Z,8.56
2018-12-02T07:50:19.935Z,8.56
2018-12-02T07:51:19.945Z,8.58
2018-12-02T07:52:20.069Z,8.57
2018-12-02T07:53:19.959Z,8.59
2018-12-02T07:54:20.207Z,8.58
2018-12-02T07:55:19.920Z,8.61
2018-12-02T07:56:19.978Z,8.61
2018-12-02T07:57:20.042Z,8.63
2018-12-02T07:58:20.148Z,8.65
2018-12-02T07:59:19.996Z,8.65
2018-12-02T08:00:19.911Z,8.69
2018-12-02T08:01:20.275Z,8.7
2018-12-02T08:02:20.166Z,8.7
2018-12-02T08:03:20.441Z,8.74
2018-12-02T08:04:20.177Z,8.73
2018-12-02T08:05:20.171Z,8.75
2018-12-02T08:06:20.088Z,8.76
2018-12-02T08:07:19.929Z,8.76
2018-12-02T08:08:20.019Z,8.8
2018-12-02T08:09:20.075Z,8.83
2018-12-02T08:10:22.277Z,8.84
2018-12-02T08:11:19.896Z,8.84
2018-12-02T08:12:20.174Z,8.85
2018-12-02T08:13:20.146Z,8.89
2018-12-02T08:14:20.180Z,8.9
2018-12-02T08:15:20.105Z,8.9
2018-12-02T08:16:20.302Z,8.95
2018-12-02T08:17:20.165Z,8.97
2018-12-02T08:18:20.363Z,8.96
2018-12-02T08:19:20.235Z,9.04
2018-12-02T08:20:19.887Z,9.04
2018-12-02T08:21:20.092Z,9.05
2018-12-02T08:22:19.879Z,9.08
2018-12-02T08:23:19.852Z,9.14
2018-12-02T08:24:19.964Z,9.11
2018-12-02T08:25:20.136Z,9.11
2018-12-02T08:26:19.924Z,9.14
2018-12-02T08:27:19.912Z,9.16
2018-12-02T08:28:20.214Z,9.19
2018-12-02T08:29:20.421Z,9.17
2018-12-02T08:30:20.107Z,9.2
2018-12-02T08:31:19.962Z,9.19
2018-12-02T08:32:19.849Z,9.17
2018-12-02T08:33:19.878Z,9.21
2018-12-02T08:34:20.361Z,9.24
2018-12-02T08:35:20.123Z,9.24
2018-12-02T08:36:20.131Z,9.25
2018-12-02T08:37:19.848Z,9.32
2018-12-02T08:38:19.839Z,9.29
2018-12-02T08:39:20.084Z,9.3
2018-12-02T08:40:20.944Z,9.3
2018-12-02T08:41:19.927Z,9.3
2018-12-02T08:42:20.022Z,9.34
2018-12-02T08:43:20.087Z,9.3
2018-12-02T08:44:19.902Z,9.34
2018-12-02T08:45:19.868Z,9.34
2018-12-02T08:46:20.000Z,9.34
2018-12-02T08:47:20.127Z,9.35
2018-12-02T08:48:19.884Z,9.36
2018-12-02T08:49:20.030Z,9.37
2018-12-02T08:50:20.023Z,9.39
2018-12-02T08:51:19.862Z,9.39
2018-12-02T08:52:19.916Z,9.4
2018-12-02T08:53:20.162Z,9.4
2018-12-02T08:54:19.852Z,9.41
2018-12-02T08:55:19.927Z,9.41
2018-12-02T08:56:19.987Z,9.41
2018-12-02T08:57:19.891Z,9.42
2018-12-02T08:58:19.862Z,9.45
2018-12-02T08:59:20.007Z,9.46
2018-12-02T09:00:19.979Z,9.45
2018-12-02T09:01:19.986Z,9.47
2018-12-02T09:02:20.010Z,9.47
2018-12-02T09:03:19.938Z,9.47
2018-12-02T09:04:19.892Z,9.47
2018-12-02T09:05:19.951Z,9.48
2018-12-02T09:06:19.930Z,9.51
2018-12-02T09:07:19.863Z,9.58
2018-12-02T09:08:20.041Z,9.59
2018-12-02T09:09:20.050Z,9.6
2018-12-02T09:10:19.916Z,9.61
2018-12-02T09:11:19.930Z,9.61
2018-12-02T09:12:20.000Z,9.6
2018-12-02T09:13:19.809Z,9.6
2018-12-02T09:14:19.946Z,9.65
2018-12-02T09:15:20.176Z,9.67
2018-12-02T09:16:20.160Z,9.66
2018-12-02T09:17:19.880Z,9.7
2018-12-02T09:18:19.793Z,9.71
2018-12-02T09:19:19.930Z,9.71
2018-12-02T09:20:19.851Z,9.7
2018-12-02T09:21:19.806Z,9.72
2018-12-02T09:22:19.849Z,9.72
2018-12-02T09:23:19.821Z,9.73
2018-12-02T09:24:19.793Z,9.75
2018-12-02T09:25:19.899Z,9.75
2018-12-02T09:26:19.843Z,9.78
2018-12-02T09:27:19.851Z,9.78
2018-12-02T09:28:20.062Z,9.79
2018-12-02T09:29:19.849Z,9.81
2018-12-02T09:30:19.871Z,9.8
2018-12-02T09:31:19.919Z,9.79
2018-12-02T09:32:19.924Z,9.83
2018-12-02T09:33:19.812Z,9.84
2018-12-02T09:34:19.830Z,9.85
2018-12-02T09:35:19.860Z,9.82
2018-12-02T09:36:20.390Z,9.88
2018-12-02T09:37:21.012Z,9.88
2018-12-02T09:38:19.777Z,9.89
2018-12-02T09:39:19.972Z,9.89
2018-12-02T09:40:19.858Z,9.88
2018-12-02T09:41:20.002Z,9.86
2018-12-02T09:42:19.907Z,9.86
2018-12-02T09:43:20.298Z,9.86
2018-12-02T09:44:19.863Z,9.94
2018-12-02T09:45:19.854Z,9.92
2018-12-02T09:46:19.781Z,9.94
2018-12-02T09:47:19.916Z,9.94
2018-12-02T09:48:19.912Z,9.96
2018-12-02T09:49:20.004Z,9.96
2018-12-02T09:50:21.167Z,9.96
2018-12-02T09:51:20.014Z,9.96
2018-12-02T09:52:20.145Z,9.94
2018-12-02T09:53:20.018Z,9.96
2018-12-02T09:54:23.731Z,9.97
2018-12-02T09:55:19.842Z,9.96
2018-12-02T09:56:19.779Z,9.95
2018-12-02T09:57:19.887Z,9.92
2018-12-02T09:58:20.202Z,9.95
2018-12-02T09:59:19.778Z,9.95
2018-12-02T10:00:19.775Z,9.95
2018-12-02T10:01:20.016Z,9.96
2018-12-02T10:02:19.891Z,9.97
2018-12-02T10:03:20.035Z,9.97
2018-12-02T10:04:20.107Z,9.97
2018-12-02T10:05:19.818Z,9.99
2018-12-02T10:06:19.910Z,9.98
2018-12-02T10:07:19.986Z,9.97
2018-12-02T10:08:20.049Z,9.96
2018-12-02T10:09:22.606Z,9.98
2018-12-02T10:10:23.461Z,9.98
2018-12-02T10:11:19.979Z,9.98
2018-12-02T10:12:19.999Z,9.98
2018-12-02T10:13:20.059Z,9.96
2018-12-02T10:14:19.986Z,9.98
2018-12-02T10:15:20.010Z,9.98
2018-12-02T10:16:19.914Z,9.98
2018-12-02T10:17:19.932Z,9.96
2018-12-02T10:18:19.845Z,9.96
2018-12-02T10:19:20.070Z,9.96
2018-12-02T10:20:21.008Z,9.97
2018-12-02T10:21:19.824Z,9.96
2018-12-02T10:22:19.722Z,9.98
2018-12-02T10:23:19.863Z,9.98
2018-12-02T10:24:19.799Z,9.99
2018-12-02T10:25:19.841Z,9.97
2018-12-02T10:26:19.836Z,9.97
2018-12-02T10:27:19.839Z,9.99
2018-12-02T10:28:19.728Z,9.97
2018-12-02T10:29:19.838Z,9.97
2018-12-02T10:30:19.943Z,9.97
2018-12-02T10:31:19.975Z,9.97
2018-12-02T10:32:19.850Z,10.01
2018-12-02T10:33:19.785Z,9.98
2018-12-02T10:34:19.792Z,9.98
2018-12-02T10:35:19.798Z,10
2018-12-02T10:36:19.909Z,10.02
2018-12-02T10:37:19.988Z,9.99
2018-12-02T10:38:19.861Z,10.03
2018-12-02T10:39:19.758Z,10.03
2018-12-02T10:40:19.828Z,10.03
2018-12-02T10:41:19.804Z,10.06
2018-12-02T10:42:20.131Z,10.04
2018-12-02T10:43:20.110Z,10.06
2018-12-02T10:44:19.774Z,10.05
2018-12-02T10:45:19.674Z,10.08
2018-12-02T10:46:19.894Z,10.1
2018-12-02T10:47:19.815Z,10.13
2018-12-02T10:48:19.836Z,10.15
2018-12-02T10:49:19.832Z,10.16
2018-12-02T10:50:19.740Z,10.19
2018-12-02T10:51:19.895Z,10.19
2018-12-02T10:52:19.849Z,10.16
2018-12-02T10:53:19.920Z,10.2
2018-12-02T10:54:19.734Z,10.22
2018-12-02T10:55:19.765Z,10.24
2018-12-02T10:56:19.678Z,10.26
2018-12-02T10:57:19.699Z,10.28
2018-12-02T10:58:19.734Z,10.27
2018-12-02T10:59:19.800Z,10.27
2018-12-02T11:00:19.716Z,10.3
2018-12-02T11:01:24.405Z,10.37
2018-12-02T11:02:28.700Z,10.36
2018-12-02T11:03:22.675Z,10.39
2018-12-02T11:04:24.265Z,10.39
2018-12-02T11:05:26.787Z,10.4
2018-12-02T11:06:25.098Z,10.39
2018-12-02T11:07:21.931Z,10.39
2018-12-02T11:08:23.287Z,10.39
2018-12-02T11:09:41.392Z,10.42
2018-12-02T11:10:25.346Z,10.41
2018-12-02T11:11:27.661Z,10.41
2018-12-02T11:12:49.477Z,10.44
2018-12-02T11:13:28.469Z,10.45
2018-12-02T11:14:50.218Z,10.43
2018-12-02T11:15:44.865Z,10.45
2018-12-02T11:16:23.466Z,10.47
2018-12-02T11:17:22.394Z,10.5
2018-12-02T11:18:23.877Z,10.47
2018-12-02T11:19:28.159Z,10.48
2018-12-02T11:20:32.189Z,10.52
2018-12-02T11:21:35.787Z,10.53
2018-12-02T11:22:26.647Z,10.54
2018-12-02T11:23:23.090Z,10.54
2018-12-02T11:24:27.287Z,10.56
2018-12-02T11:25:25.047Z,10.58
2018-12-02T11:26:24.190Z,10.58
2018-12-02T11:27:27.044Z,10.58
2018-12-02T11:28:19.568Z,10.59
2018-12-02T11:29:19.881Z,10.6
2018-12-02T11:30:19.642Z,10.62
2018-12-02T11:31:19.849Z,10.65
2018-12-02T11:32:19.634Z,10.65
2018-12-02T11:33:19.797Z,10.66
2018-12-02T11:34:19.676Z,10.65
2018-12-02T11:35:19.692Z,10.69
2018-12-02T11:36:19.731Z,10.7
2018-12-02T11:37:19.757Z,10.74
2018-12-02T11:38:20.019Z,10.75
2018-12-02T11:39:19.734Z,10.76
2018-12-02T11:40:19.831Z,10.76
2018-12-02T11:41:19.684Z,10.78
2018-12-02T11:42:19.869Z,10.78
2018-12-02T11:43:19.802Z,10.81
2018-12-02T11:44:19.810Z,10.79
2018-12-02T11:45:19.747Z,10.83
2018-12-02T11:46:19.627Z,10.83
2018-12-02T11:47:20.012Z,10.84
2018-12-02T11:48:20.209Z,10.83
2018-12-02T11:49:19.805Z,10.83
2018-12-02T11:50:23.846Z,10.85
2018-12-02T11:51:22.062Z,10.9
2018-12-02T11:52:19.673Z,10.9
2018-12-02T11:53:19.822Z,10.88
2018-12-02T11:54:19.620Z,10.91
2018-12-02T11:55:19.846Z,10.92
2018-12-02T11:56:19.738Z,10.91
2018-12-02T11:57:19.733Z,10.91
2018-12-02T11:58:19.712Z,10.91
2018-12-02T11:59:19.614Z,10.91
2018-12-02T12:00:19.768Z,10.95
2018-12-02T12:01:19.799Z,10.96
2018-12-02T12:02:19.710Z,10.95
2018-12-02T12:03:19.704Z,10.96
2018-12-02T12:04:19.654Z,10.95
2018-12-02T12:05:19.854Z,10.96
2018-12-02T12:06:19.855Z,10.95
2018-12-02T12:07:19.759Z,11.02
2018-12-02T12:08:19.663Z,11.02
2018-12-02T12:09:19.597Z,11.03
2018-12-02T12:10:19.824Z,11.03
2018-12-02T12:11:19.791Z,11.05
2018-12-02T12:12:19.846Z,11.05
2018-12-02T12:13:19.637Z,11.06
2018-12-02T12:14:19.617Z,11.06
2018-12-02T12:15:19.834Z,11.09
2018-12-02T12:16:19.638Z,11.09
2018-12-02T12:17:19.761Z,11.09
2018-12-02T12:18:19.780Z,11.1
2018-12-02T12:19:19.607Z,11.1
2018-12-02T12:20:24.499Z,11.1
2018-12-02T12:21:20.818Z,11.11
2018-12-02T12:22:19.628Z,11.14
2018-12-02T12:23:20.470Z,11.16
2018-12-02T12:24:19.781Z,11.14
2018-12-02T12:25:19.699Z,11.17
2018-12-02T12:26:19.594Z,11.14
2018-12-02T12:27:19.682Z,11.15
2018-12-02T12:28:19.571Z,11.14
2018-12-02T12:29:19.728Z,11.14
2018-12-02T12:30:19.723Z,11.17
2018-12-02T12:31:19.967Z,11.15
2018-12-02T12:32:19.543Z,11.15
2018-12-02T12:33:19.583Z,11.19
2018-12-02T12:34:19.692Z,11.18
2018-12-02T12:35:19.699Z,11.21
2018-12-02T12:36:19.594Z,11.2
2018-12-02T12:37:19.586Z,11.2
2018-12-02T12:38:19.583Z,11.23
2018-12-02T12:39:20.623Z,11.21
2018-12-02T12:40:19.632Z,11.2
2018-12-02T12:41:19.644Z,11.19
2018-12-02T12:42:19.859Z,11.2
2018-12-02T12:43:19.629Z,11.22
2018-12-02T12:44:19.580Z,11.22
2018-12-02T12:45:19.747Z,11.22
2018-12-02T12:46:19.598Z,11.2
2018-12-02T12:47:19.640Z,11.21
2018-12-02T12:48:19.617Z,11.21
2018-12-02T12:49:20.589Z,11.2
2018-12-02T12:50:19.569Z,11.19
2018-12-02T12:51:19.611Z,11.19
2018-12-02T12:52:19.548Z,11.18
2018-12-02T12:53:19.825Z,11.19
2018-12-02T12:54:19.563Z,11.21
2018-12-02T12:55:19.571Z,11.19
2018-12-02T12:56:19.766Z,11.19
2018-12-02T12:57:19.714Z,11.21
2018-12-02T12:58:19.926Z,11.2
2018-12-02T12:59:19.689Z,11.2
2018-12-02T13:00:19.649Z,11.23
2018-12-02T13:01:19.582Z,11.26
2018-12-02T13:02:19.622Z,11.27
2018-12-02T13:03:19.603Z,11.27
2018-12-02T13:04:19.591Z,11.27
2018-12-02T13:05:19.731Z,11.27
2018-12-02T13:06:19.683Z,11.28
2018-12-02T13:07:19.576Z,11.27
2018-12-02T13:08:19.688Z,11.27
2018-12-02T13:09:19.703Z,11.26
2018-12-02T13:10:19.975Z,11.27
2018-12-02T13:11:19.538Z,11.26
2018-12-02T13:12:19.675Z,11.27
2018-12-02T13:13:19.671Z,11.28
2018-12-02T13:14:19.780Z,11.26
2018-12-02T13:15:19.530Z,11.26